Time;durP1;ratioP1;P1;durP2;ratioP2;P2;SDS_P1;SDS_P2;PMS_P1;PMS_P2;Temp;Humidity;BMP_temperature;BMP_pressure;BME280_temperature;BME280_humidity;BME280_pressure;Samples;Min_cycle;Max_cycle;Signal;HPM_P1;HPM_P2
2022/05/13 00:01:27;;;;;;;10.10;2.40;;;13.90;99.90;;;;;;5072044;28;20226;-74
2022/05/13 00:03:54;;;;;;;9.00;2.63;;;13.90;99.90;;;;;;5061921;28;20551;-74
2022/05/13 00:06:20;;;;;;;7.93;2.50;;;13.90;99.90;;;;;;5041657;28;20195;-74
2022/05/13 00:08:47;;;;;;;4.60;2.20;;;14.00;99.90;;;;;;5066696;28;20186;-74
2022/05/13 00:11:14;;;;;;;5.53;2.10;;;13.90;99.90;;;;;;5069760;28;20202;-74
2022/05/13 00:13:40;;;;;;;9.67;2.50;;;13.90;99.90;;;;;;5062885;28;20186;-73
2022/05/13 00:16:07;;;;;;;11.00;2.30;;;14.00;99.90;;;;;;5063086;28;20190;-74
2022/05/13 00:18:34;;;;;;;5.80;2.00;;;14.00;99.90;;;;;;5071851;28;20278;-74
2022/05/13 00:21:02;;;;;;;6.90;2.20;;;14.00;99.90;;;;;;5078201;28;20229;-74
2022/05/13 00:23:28;;;;;;;7.20;2.43;;;14.00;99.90;;;;;;5061224;28;21900;-73
2022/05/13 00:25:55;;;;;;;9.33;2.87;;;13.90;99.90;;;;;;5068642;28;20188;-73
2022/05/13 00:28:21;;;;;;;7.73;2.30;;;13.90;99.90;;;;;;5059509;28;20194;-74
2022/05/13 00:30:51;;;;;;;5.67;2.50;;;13.90;99.90;;;;;;5050220;28;20696;-74
2022/05/13 00:33:20;;;;;;;7.67;2.73;;;13.90;99.90;;;;;;5044833;28;20916;-74
2022/05/13 00:35:49;;;;;;;10.00;2.30;;;13.90;99.90;;;;;;5069734;28;20187;-74
2022/05/13 00:38:15;;;;;;;4.50;2.17;;;13.90;99.90;;;;;;5064410;28;20525;-74
2022/05/13 00:40:44;;;;;;;9.83;2.37;;;13.90;99.90;;;;;;5068909;28;20566;-74
2022/05/13 00:43:14;;;;;;;8.20;2.20;;;13.90;99.90;;;;;;5064760;28;20187;-74
2022/05/13 00:45:41;;;;;;;8.40;2.47;;;13.90;99.90;;;;;;5067414;28;20202;-74
2022/05/13 00:48:08;;;;;;;6.37;2.37;;;14.00;99.90;;;;;;5081331;28;20183;-74
2022/05/13 00:50:40;;;;;;;9.27;2.57;;;14.00;99.90;;;;;;5042004;28;20255;-74
2022/05/13 00:53:06;;;;;;;9.47;2.33;;;13.90;99.90;;;;;;5075053;28;20186;-74
2022/05/13 00:55:42;;;;;;;10.60;2.43;;;13.80;99.90;;;;;;5049027;28;20289;-74
2022/05/13 00:58:17;;;;;;;7.93;2.13;;;13.70;99.90;;;;;;5033269;28;20600;-73
2022/05/13 01:00:45;;;;;;;6.53;1.93;;;13.80;99.90;;;;;;5027952;28;20582;-74
2022/05/13 01:03:12;;;;;;;6.27;2.40;;;13.80;99.90;;;;;;5076585;28;20182;-74
2022/05/13 01:05:53;;;;;;;7.63;2.70;;;13.80;99.90;;;;;;5042440;28;20275;-73
2022/05/13 01:08:20;;;;;;;6.83;2.50;;;13.70;99.90;;;;;;5068993;28;20185;-73
2022/05/13 01:10:51;;;;;;;5.50;2.50;;;13.70;99.90;;;;;;5068160;28;20226;-74
2022/05/13 01:13:23;;;;;;;6.43;2.10;;;13.70;99.90;;;;;;5068008;28;20860;-73
2022/05/13 01:15:51;;;;;;;5.57;1.97;;;13.70;99.90;;;;;;5070331;28;20188;-74
2022/05/13 01:18:33;;;;;;;9.40;2.47;;;13.70;99.90;;;;;;5063238;28;20201;-74
2022/05/13 01:21:01;;;;;;;4.60;2.13;;;13.80;99.90;;;;;;5073490;28;20214;-74
2022/05/13 01:23:40;;;;;;;5.93;2.00;;;13.80;99.90;;;;;;5040756;28;20287;-74
2022/05/13 01:26:19;;;;;;;9.23;2.30;;;13.80;99.90;;;;;;5054437;28;20190;-73
2022/05/13 01:28:51;;;;;;;7.40;2.20;;;13.80;99.90;;;;;;5048192;28;20194;-74
2022/05/13 01:31:30;;;;;;;5.97;2.20;;;13.80;99.90;;;;;;5065113;28;20654;-73
2022/05/13 01:34:03;;;;;;;13.37;2.83;;;13.80;99.90;;;;;;5067231;28;20222;-74
2022/05/13 01:36:31;;;;;;;6.43;2.30;;;13.70;99.90;;;;;;5046523;28;20252;-74
2022/05/13 01:38:58;;;;;;;7.40;2.40;;;13.70;99.90;;;;;;5067487;28;20203;-73
2022/05/13 01:41:26;;;;;;;5.97;2.13;;;13.60;99.90;;;;;;5059753;28;20222;-73
2022/05/13 01:43:55;;;;;;;6.13;2.17;;;13.50;99.90;;;;;;5064672;28;20191;-74
2022/05/13 01:46:23;;;;;;;4.93;2.30;;;13.60;99.90;;;;;;5059777;28;20202;-73
2022/05/13 01:48:56;;;;;;;8.63;2.23;;;13.60;99.90;;;;;;5044948;28;20206;-73
2022/05/13 01:51:25;;;;;;;9.50;2.67;;;13.50;99.90;;;;;;5062020;28;20206;-74
2022/05/13 01:53:53;;;;;;;5.67;2.03;;;13.60;99.90;;;;;;5063996;28;20199;-74
2022/05/13 01:56:20;;;;;;;4.33;2.20;;;13.50;99.90;;;;;;5063340;28;20286;-74
2022/05/13 01:58:47;;;;;;;8.40;2.17;;;13.50;99.90;;;;;;5034306;28;20188;-74
2022/05/13 02:01:13;;;;;;;8.43;2.17;;;13.50;99.90;;;;;;5061734;28;20230;-74
2022/05/13 02:03:46;;;;;;;8.40;2.07;;;13.50;99.90;;;;;;5042701;28;20191;-74
2022/05/13 02:06:28;;;;;;;7.00;1.87;;;13.60;99.90;;;;;;5059104;28;20195;-74
2022/05/13 02:08:59;;;;;;;6.33;2.00;;;13.60;99.90;;;;;;5063572;28;20189;-74
2022/05/13 02:11:29;;;;;;;8.90;2.13;;;13.70;99.90;;;;;;5053057;28;20578;-74
2022/05/13 02:13:55;;;;;;;10.00;2.40;;;13.70;99.90;;;;;;5028233;28;20191;-74
2022/05/13 02:16:22;;;;;;;6.63;2.10;;;13.70;99.90;;;;;;5077116;28;20303;-74
2022/05/13 02:18:49;;;;;;;7.20;2.07;;;13.80;99.90;;;;;;5061196;28;20649;-73
2022/05/13 02:21:17;;;;;;;9.77;2.30;;;13.80;99.90;;;;;;5067080;28;20213;-73
2022/05/13 02:23:48;;;;;;;10.77;2.17;;;13.80;99.90;;;;;;5030762;28;20186;-74
2022/05/13 02:26:17;;;;;;;8.00;1.70;;;13.90;99.90;;;;;;5062000;28;20188;-74
2022/05/13 02:28:45;;;;;;;6.13;1.87;;;14.00;99.90;;;;;;5065873;28;20190;-74
2022/05/13 02:31:13;;;;;;;8.07;1.83;;;14.00;99.90;;;;;;5064303;28;20618;-73
2022/05/13 02:33:41;;;;;;;6.83;1.93;;;14.10;99.90;;;;;;5058051;28;20192;-74
2022/05/13 02:36:08;;;;;;;5.33;2.00;;;14.10;99.90;;;;;;5062203;28;20222;-74
2022/05/13 02:38:35;;;;;;;5.37;1.80;;;14.00;99.90;;;;;;5050979;28;20844;-73
2022/05/13 02:41:11;;;;;;;7.50;1.97;;;14.00;99.90;;;;;;5067306;28;20221;-74
2022/05/13 02:43:45;;;;;;;5.87;2.10;;;14.10;99.90;;;;;;5064093;28;20186;-74
2022/05/13 02:46:23;;;;;;;9.73;2.40;;;14.10;99.90;;;;;;5064653;28;20669;-74
2022/05/13 02:48:50;;;;;;;6.60;2.10;;;14.10;99.90;;;;;;5061165;28;20183;-74
2022/05/13 02:51:18;;;;;;;7.23;2.23;;;14.20;99.90;;;;;;5063226;28;20575;-74
2022/05/13 02:53:45;;;;;;;8.87;2.10;;;14.20;99.90;;;;;;5057920;28;21558;-74
2022/05/13 02:56:12;;;;;;;7.33;2.00;;;14.20;99.90;;;;;;5067001;28;20260;-73
2022/05/13 02:58:40;;;;;;;7.27;2.30;;;14.20;99.90;;;;;;5061019;28;20276;-74
2022/05/13 03:01:09;;;;;;;4.23;1.83;;;14.30;99.90;;;;;;5050889;28;20640;-74
2022/05/13 03:03:40;;;;;;;6.87;1.93;;;14.30;99.90;;;;;;5074245;28;20202;-74
2022/05/13 03:06:13;;;;;;;13.47;2.23;;;14.40;99.90;;;;;;5069598;28;20194;-74
2022/05/13 03:08:45;;;;;;;10.57;2.33;;;14.50;99.90;;;;;;5071722;28;20194;-74
2022/05/13 03:11:16;;;;;;;8.40;2.07;;;14.50;99.90;;;;;;5072046;28;20244;-74
2022/05/13 03:13:43;;;;;;;8.27;2.30;;;14.50;99.90;;;;;;5068396;28;20195;-74
2022/05/13 03:16:25;;;;;;;9.37;2.40;;;14.50;99.90;;;;;;5068665;28;20191;-74
2022/05/13 03:18:56;;;;;;;11.47;2.23;;;14.50;99.90;;;;;;5064128;28;20188;-74
2022/05/13 03:21:27;;;;;;;5.80;2.17;;;14.50;99.90;;;;;;5072967;28;20222;-74
2022/05/13 03:23:54;;;;;;;11.03;2.40;;;14.50;99.90;;;;;;5047650;28;20213;-74
2022/05/13 03:26:22;;;;;;;8.97;2.53;;;14.60;99.90;;;;;;5064462;28;20190;-73
2022/05/13 03:28:50;;;;;;;9.83;2.43;;;14.70;99.90;;;;;;5061829;28;20266;-74
2022/05/13 03:31:16;;;;;;;10.67;2.13;;;14.70;99.90;;;;;;5065318;28;20256;-74
2022/05/13 03:33:43;;;;;;;10.33;2.13;;;14.90;99.90;;;;;;5065203;28;20194;-74
2022/05/13 03:36:12;;;;;;;12.37;2.47;;;15.00;99.90;;;;;;5065989;28;20195;-74
2022/05/13 03:38:40;;;;;;;12.63;3.00;;;15.10;99.90;;;;;;5039685;28;20384;-74
2022/05/13 03:41:12;;;;;;;7.90;2.33;;;15.20;99.90;;;;;;5069460;28;20280;-74
2022/05/13 03:43:41;;;;;;;13.23;2.53;;;15.30;99.90;;;;;;5064642;28;20191;-73
2022/05/13 03:46:08;;;;;;;10.37;2.90;;;15.30;99.90;;;;;;5067481;28;20515;-74
2022/05/13 03:48:34;;;;;;;9.60;2.80;;;15.20;99.90;;;;;;5039932;28;20190;-74
2022/05/13 03:51:03;;;;;;;8.10;2.87;;;15.20;99.90;;;;;;5076211;28;20190;-74
2022/05/13 03:53:32;;;;;;;14.37;2.80;;;15.10;99.90;;;;;;5069347;28;20195;-74
2022/05/13 03:55:58;;;;;;;10.77;2.60;;;15.10;99.90;;;;;;5054657;28;20636;-74
2022/05/13 03:58:24;;;;;;;11.13;3.07;;;15.10;99.90;;;;;;5073865;28;20217;-74
2022/05/13 04:00:54;;;;;;;15.47;2.77;;;15.00;99.90;;;;;;5061467;28;20248;-74
2022/05/13 04:03:20;;;;;;;11.37;3.00;;;15.00;99.90;;;;;;5063222;28;20267;-74
2022/05/13 04:11:20;;;;;;;13.67;2.80;;;15.00;99.90;;;;;;5063563;28;20620;-74
2022/05/13 04:16:31;;;;;;;9.63;2.90;;;15.10;99.90;;;;;;5045425;28;20194;-74
2022/05/13 04:18:58;;;;;;;7.90;2.80;;;15.10;99.90;;;;;;5061656;28;20195;-74
2022/05/13 04:21:32;;;;;;;10.53;2.80;;;15.10;99.90;;;;;;5061233;28;20376;-74
2022/05/13 04:24:07;;;;;;;10.90;2.50;;;15.10;99.90;;;;;;5078463;28;20191;-74
2022/05/13 04:26:34;;;;;;;15.53;3.10;;;15.10;99.90;;;;;;5067576;28;20209;-74
2022/05/13 04:29:02;;;;;;;10.87;2.60;;;15.10;99.90;;;;;;5065112;28;20226;-74
2022/05/13 04:31:37;;;;;;;7.13;2.47;;;15.10;99.90;;;;;;5070515;28;20289;-74
2022/05/13 04:34:08;;;;;;;7.10;2.33;;;15.20;99.90;;;;;;5056796;28;20198;-74
2022/05/13 04:36:36;;;;;;;11.57;2.80;;;15.30;99.90;;;;;;5047219;28;20240;-74
2022/05/13 04:39:03;;;;;;;8.87;2.63;;;15.40;99.90;;;;;;5078686;28;20287;-74
2022/05/13 04:44:17;;;;;;;6.73;2.33;;;15.60;99.90;;;;;;5047397;28;20183;-74
2022/05/13 04:46:45;;;;;;;8.83;2.20;;;15.70;99.90;;;;;;5040975;28;20191;-74
2022/05/13 04:49:14;;;;;;;9.27;2.37;;;15.90;99.90;;;;;;5038378;28;20253;-74
2022/05/13 04:51:41;;;;;;;9.97;2.30;;;15.90;99.90;;;;;;5059869;28;20187;-74
2022/05/13 04:54:08;;;;;;;5.67;2.10;;;15.90;99.90;;;;;;5067970;28;20235;-74
2022/05/13 04:56:35;;;;;;;6.43;2.13;;;15.90;99.90;;;;;;5065058;28;20221;-74
2022/05/13 04:59:02;;;;;;;4.00;1.80;;;16.00;99.90;;;;;;5048168;28;20199;-73
2022/05/13 05:01:29;;;;;;;8.60;2.20;;;16.00;99.90;;;;;;5068181;28;20310;-74
2022/05/13 05:03:55;;;;;;;6.67;2.20;;;16.00;99.90;;;;;;5067715;28;20188;-74
2022/05/13 05:06:23;;;;;;;10.70;2.40;;;16.10;99.90;;;;;;5060881;28;20633;-74
2022/05/13 05:08:53;;;;;;;12.83;2.73;;;16.10;99.90;;;;;;5039882;28;20294;-74
2022/05/13 05:11:20;;;;;;;10.53;2.80;;;16.10;99.90;;;;;;5061872;28;20653;-74
2022/05/13 05:13:51;;;;;;;6.60;2.17;;;16.20;99.90;;;;;;5070657;28;20380;-74
2022/05/13 05:16:22;;;;;;;4.97;2.03;;;16.20;99.90;;;;;;5071995;28;20252;-74
2022/05/13 05:18:49;;;;;;;10.70;2.60;;;16.30;99.90;;;;;;5051114;28;20697;-73
2022/05/13 05:21:17;;;;;;;9.40;2.70;;;16.30;99.90;;;;;;5048929;28;20328;-74
2022/05/13 05:23:45;;;;;;;8.57;2.57;;;16.30;99.90;;;;;;5050351;28;20183;-74
2022/05/13 05:26:12;;;;;;;9.80;2.77;;;16.40;99.90;;;;;;5024789;28;20552;-74
2022/05/13 05:28:41;;;;;;;15.57;2.53;;;16.40;99.90;;;;;;5060367;28;20190;-74
2022/05/13 05:31:11;;;;;;;8.80;2.40;;;16.50;99.90;;;;;;5061438;28;20195;-74
2022/05/13 05:33:38;;;;;;;7.50;2.17;;;16.50;99.90;;;;;;5033537;28;20187;-73
2022/05/13 05:36:06;;;;;;;8.50;2.73;;;16.60;99.90;;;;;;5083587;28;20212;-74
2022/05/13 05:38:33;;;;;;;10.30;2.30;;;16.60;99.90;;;;;;5059677;28;20644;-73
2022/05/13 05:41:01;;;;;;;8.27;2.63;;;16.70;99.90;;;;;;5058003;28;20517;-74
2022/05/13 05:43:28;;;;;;;9.27;2.40;;;16.80;99.90;;;;;;5064235;28;20191;-74
2022/05/13 05:45:56;;;;;;;9.83;2.77;;;16.80;99.90;;;;;;5059486;28;20206;-73
2022/05/13 05:48:23;;;;;;;6.87;2.63;;;16.90;99.90;;;;;;5079673;28;20272;-74
2022/05/13 05:50:58;;;;;;;6.80;2.17;;;17.00;99.90;;;;;;5070392;28;20202;-74
2022/05/13 05:59:06;;;;;;;11.33;2.70;;;17.20;99.90;;;;;;5064380;28;20194;-74
2022/05/13 06:01:36;;;;;;;13.00;2.87;;;17.40;99.90;;;;;;5080581;28;20258;-74
2022/05/13 06:04:06;;;;;;;9.13;2.50;;;17.50;99.90;;;;;;5056658;28;20363;-73
2022/05/13 06:06:33;;;;;;;9.83;2.63;;;17.60;99.90;;;;;;5034703;28;20187;-74
2022/05/13 06:09:03;;;;;;;10.97;2.80;;;17.60;99.90;;;;;;5078535;28;20195;-74
2022/05/13 06:11:32;;;;;;;6.87;2.47;;;17.70;99.90;;;;;;5047498;28;20202;-74
2022/05/13 06:14:03;;;;;;;14.97;2.77;;;17.80;99.90;;;;;;5060277;28;20218;-74
2022/05/13 06:16:39;;;;;;;10.27;2.97;;;17.90;99.90;;;;;;5047509;28;20209;-74
2022/05/13 06:19:05;;;;;;;11.17;3.27;;;17.90;99.90;;;;;;5041734;28;20271;-73
2022/05/13 06:21:35;;;;;;;16.93;3.13;;;18.00;99.90;;;;;;5063016;28;20985;-73
2022/05/13 06:24:03;;;;;;;17.47;3.27;;;18.20;99.90;;;;;;5056272;28;20203;-74
2022/05/13 06:26:31;;;;;;;11.77;2.90;;;18.40;99.90;;;;;;5063928;28;20195;-74
2022/05/13 06:28:59;;;;;;;16.23;2.80;;;18.60;99.90;;;;;;5034072;28;20545;-73
2022/05/13 06:31:27;;;;;;;9.33;2.60;;;18.70;99.90;;;;;;5023448;28;20912;-74
2022/05/13 06:33:54;;;;;;;8.77;2.50;;;18.80;99.90;;;;;;5050522;28;21864;-74
2022/05/13 06:36:25;;;;;;;6.73;2.77;;;18.90;99.90;;;;;;5055349;28;20309;-74
2022/05/13 06:38:56;;;;;;;10.33;2.70;;;18.90;99.90;;;;;;5036943;28;20317;-74
2022/05/13 06:41:24;;;;;;;11.93;2.77;;;18.90;99.90;;;;;;5049377;28;20211;-74
2022/05/13 06:43:51;;;;;;;18.80;3.30;;;19.00;99.90;;;;;;5057296;28;21166;-74
2022/05/13 06:46:18;;;;;;;13.87;2.80;;;19.10;99.90;;;;;;5035767;28;20195;-74
2022/05/13 06:48:49;;;;;;;12.70;2.90;;;19.20;99.90;;;;;;5040685;28;20191;-74
2022/05/13 06:51:17;;;;;;;13.37;2.60;;;19.30;99.90;;;;;;5043533;28;21005;-74
2022/05/13 06:53:44;;;;;;;8.43;2.90;;;19.60;99.90;;;;;;5056546;28;20198;-74
2022/05/13 06:56:12;;;;;;;9.97;3.00;;;19.70;99.90;;;;;;5061248;28;20197;-74
2022/05/13 06:58:40;;;;;;;13.60;3.57;;;19.60;99.90;;;;;;5059947;28;20187;-74
2022/05/13 07:01:07;;;;;;;19.57;3.00;;;19.70;99.90;;;;;;5056887;28;20191;-74
2022/05/13 07:03:34;;;;;;;14.50;3.00;;;19.80;99.90;;;;;;5058971;28;20191;-74
2022/05/13 07:06:03;;;;;;;11.23;3.20;;;19.90;99.90;;;;;;5046524;28;20275;-74
2022/05/13 07:08:32;;;;;;;11.17;2.53;;;20.00;99.90;;;;;;5064713;28;20270;-73
2022/05/13 07:10:59;;;;;;;13.37;2.87;;;20.00;99.90;;;;;;5057702;28;20191;-74
2022/05/13 07:13:29;;;;;;;9.97;3.03;;;20.10;99.90;;;;;;5035781;28;20602;-74
2022/05/13 07:15:57;;;;;;;14.33;3.00;;;20.20;99.90;;;;;;5040145;28;20654;-74
2022/05/13 07:18:24;;;;;;;13.63;3.07;;;20.20;99.90;;;;;;5060343;28;20344;-74
2022/05/13 07:20:51;;;;;;;49.33;5.03;;;20.20;99.90;;;;;;5055725;28;20281;-75
2022/05/13 07:23:20;;;;;;;59.23;6.30;;;20.20;99.90;;;;;;5055502;28;20543;-74
2022/05/13 07:25:47;;;;;;;9.43;2.53;;;20.20;99.90;;;;;;5049519;28;20178;-74
2022/05/13 07:28:13;;;;;;;14.20;3.17;;;20.30;99.90;;;;;;5055932;28;20191;-74
2022/05/13 07:30:40;;;;;;;11.47;3.00;;;20.40;99.90;;;;;;5045261;28;20360;-74
2022/05/13 07:33:13;;;;;;;9.37;2.57;;;20.40;99.90;;;;;;5055625;28;20211;-74
2022/05/13 07:35:40;;;;;;;11.97;2.80;;;20.50;99.90;;;;;;5056106;28;20186;-74
2022/05/13 07:38:07;;;;;;;18.57;2.90;;;20.60;99.90;;;;;;5056645;28;20186;-74
2022/05/13 07:43:19;;;;;;;9.30;2.90;;;20.70;99.90;;;;;;5063408;28;20369;-74
2022/05/13 07:45:45;;;;;;;10.23;2.37;;;20.70;99.90;;;;;;5063791;28;20198;-74
2022/05/13 07:48:12;;;;;;;8.03;2.03;;;20.70;99.90;;;;;;5048461;28;20278;-75
2022/05/13 07:50:39;;;;;;;6.33;2.70;;;20.70;99.90;;;;;;5044015;28;21467;-74
2022/05/13 07:53:06;;;;;;;12.47;2.47;;;20.80;99.90;;;;;;5059044;28;20187;-75
2022/05/13 07:55:33;;;;;;;11.13;2.70;;;20.80;99.90;;;;;;5046547;28;20292;-74
2022/05/13 07:57:59;;;;;;;6.40;2.60;;;20.90;99.90;;;;;;5060778;28;20684;-75
2022/05/13 08:00:33;;;;;;;14.40;2.73;;;20.90;99.90;;;;;;5044304;28;20190;-75
2022/05/13 08:03:15;;;;;;;12.63;2.80;;;21.00;99.90;;;;;;5058035;28;20276;-75
2022/05/13 08:05:50;;;;;;;9.97;2.90;;;21.00;99.90;;;;;;5055652;28;20694;-75
2022/05/13 08:08:29;;;;;;;17.53;2.87;;;21.20;99.90;;;;;;5062494;28;20190;-74
2022/05/13 08:11:03;;;;;;;13.60;2.60;;;21.20;99.90;;;;;;5046403;28;20194;-74
2022/05/13 08:13:31;;;;;;;12.63;2.87;;;21.30;99.90;;;;;;5058569;28;20567;-74
2022/05/13 08:16:04;;;;;;;45.93;5.47;;;21.30;99.90;;;;;;5057124;28;20191;-74
2022/05/13 08:18:33;;;;;;;55.17;6.10;;;21.50;99.90;;;;;;5057596;28;20662;-75
2022/05/13 08:21:01;;;;;;;27.08;4.25;;;21.60;99.90;;;;;;5076294;28;20210;-75
2022/05/13 08:23:29;;;;;;;15.43;3.00;;;21.70;99.90;;;;;;5059277;28;20178;-75
2022/05/13 08:25:56;;;;;;;9.95;2.47;;;21.70;99.90;;;;;;5025869;28;20182;-75
2022/05/13 08:28:25;;;;;;;9.20;2.90;;;21.80;99.90;;;;;;5066349;28;20198;-74
2022/05/13 08:30:52;;;;;;;10.40;2.75;;;21.90;99.90;;;;;;5040855;28;20597;-74
2022/05/13 08:33:20;;;;;;;7.28;2.42;;;21.90;99.90;;;;;;5064086;28;20547;-74
2022/05/13 08:35:51;;;;;;;6.70;2.20;;;21.90;99.90;;;;;;5065935;28;20191;-74
2022/05/13 08:38:25;;;;;;;16.20;3.07;;;22.00;99.90;;;;;;5057362;28;20698;-73
2022/05/13 08:40:58;;;;;;;12.02;2.70;;;22.10;99.90;;;;;;5057481;28;20666;-73
2022/05/13 08:43:39;;;;;;;15.43;2.92;;;22.20;99.90;;;;;;5047432;28;20179;-74
2022/05/13 08:46:41;;;;;;;13.18;3.08;;;22.20;99.90;;;;;;5056401;28;20194;-74
2022/05/13 08:49:29;;;;;;;8.10;2.55;;;22.20;99.90;;;;;;5054884;28;20708;-74
2022/05/13 08:53:06;;;;;;;10.45;3.00;;;22.20;99.90;;;;;;5054008;28;20190;-75
2022/05/13 08:54:59;;;;;;;13.40;3.15;;;22.30;99.90;;;;;;5056262;28;20221;-75
2022/05/13 08:57:43;;;;;;;9.07;2.70;;;22.50;99.90;;;;;;5065256;28;20205;-75
2022/05/13 09:00:24;;;;;;;8.75;2.65;;;22.60;99.90;;;;;;5056900;28;20189;-75
2022/05/13 09:03:03;;;;;;;11.90;3.53;;;22.60;99.90;;;;;;5058714;28;20233;-75
2022/05/13 09:05:43;;;;;;;15.95;2.83;;;22.70;99.90;;;;;;5064361;28;20189;-75
2022/05/13 09:08:10;;;;;;;8.25;2.53;;;22.70;99.90;;;;;;5086852;28;20179;-75
2022/05/13 09:11:01;;;;;;;6.85;2.67;;;22.80;99.90;;;;;;5072781;28;20269;-75
2022/05/13 09:13:45;;;;;;;10.18;2.90;;;22.80;99.90;;;;;;5057577;28;20706;-75
2022/05/13 09:16:13;;;;;;;12.95;3.00;;;22.90;99.90;;;;;;5039322;28;20690;-75
2022/05/13 09:19:02;;;;;;;14.13;3.03;;;22.90;99.90;;;;;;5060369;28;20236;-75
2022/05/13 09:21:28;;;;;;;9.80;2.83;;;22.90;99.90;;;;;;5070185;28;20206;-75
2022/05/13 09:23:56;;;;;;;7.30;2.50;;;23.10;99.90;;;;;;5067342;28;20250;-75
2022/05/13 09:26:26;;;;;;;9.38;2.92;;;23.10;99.90;;;;;;5077886;28;20187;-75
2022/05/13 09:29:17;;;;;;;11.30;2.88;;;23.10;99.90;;;;;;5065718;28;20210;-75
2022/05/13 09:32:10;;;;;;;9.57;2.80;;;23.20;99.90;;;;;;5046590;28;20843;-75
2022/05/13 09:34:57;;;;;;;12.05;3.00;;;23.30;99.90;;;;;;5050655;28;20198;-75
2022/05/13 09:37:34;;;;;;;41.03;4.32;;;23.30;99.90;;;;;;5044800;28;20193;-75
2022/05/13 09:40:32;;;;;;;11.30;2.85;;;23.40;99.90;;;;;;5059295;28;20183;-75
2022/05/13 09:43:02;;;;;;;9.63;2.63;;;23.50;99.90;;;;;;5054627;28;20556;-75
2022/05/13 09:45:34;;;;;;;7.13;2.60;;;23.60;99.90;;;;;;5043482;28;20316;-75
2022/05/13 09:48:12;;;;;;;12.02;3.05;;;23.80;99.90;;;;;;5045663;28;20535;-75
2022/05/13 09:50:45;;;;;;;9.90;2.70;;;23.90;99.90;;;;;;5057589;28;20195;-75
2022/05/13 09:53:32;;;;;;;18.52;3.08;;;23.90;99.90;;;;;;5044985;28;20235;-75
2022/05/13 09:56:04;;;;;;;11.70;2.75;;;24.10;99.90;;;;;;5053266;28;20680;-75
2022/05/13 09:58:50;;;;;;;8.73;2.63;;;24.10;99.90;;;;;;5046828;28;20191;-75
2022/05/13 10:01:30;;;;;;;12.18;2.97;;;24.10;99.90;;;;;;5061925;28;20192;-75
2022/05/13 10:04:25;;;;;;;7.65;2.63;;;24.10;99.90;;;;;;5060427;28;20183;-75
2022/05/13 10:07:13;;;;;;;8.90;2.58;;;24.00;99.90;;;;;;5057861;28;20191;-75
2022/05/13 10:15:34;;;;;;;9.50;2.67;;;24.00;99.90;;;;;;5065183;28;20250;-75
2022/05/13 10:18:13;;;;;;;11.35;2.90;;;24.20;99.90;;;;;;5061880;28;20206;-75
2022/05/13 10:20:44;;;;;;;11.40;2.95;;;24.20;99.90;;;;;;5061356;28;20629;-75
2022/05/13 10:23:28;;;;;;;14.50;2.78;;;24.20;99.90;;;;;;5060623;28;20206;-74
2022/05/13 10:26:17;;;;;;;13.05;2.95;;;24.30;99.90;;;;;;5059480;28;20209;-75
2022/05/13 10:29:09;;;;;;;6.45;2.33;;;24.20;99.90;;;;;;5074791;28;20186;-75
2022/05/13 10:31:46;;;;;;;8.15;2.67;;;24.10;99.90;;;;;;5055034;28;21786;-75
2022/05/13 10:34:40;;;;;;;11.95;3.17;;;24.20;99.90;;;;;;5061523;28;20186;-75
2022/05/13 10:37:54;;;;;;;28.98;3.78;;;24.20;99.90;;;;;;5047427;28;20191;-75
2022/05/13 10:40:22;;;;;;;10.70;2.97;;;24.30;99.90;;;;;;5058474;28;20585;-75
2022/05/13 10:43:38;;;;;;;10.48;2.70;;;24.30;99.90;;;;;;5046453;28;20985;-74
2022/05/13 10:46:31;;;;;;;25.05;4.13;;;24.20;99.90;;;;;;5054163;28;20195;-74
2022/05/13 10:48:59;;;;;;;65.28;5.57;;;24.30;99.90;;;;;;5059869;28;20270;-74
2022/05/13 10:52:00;;;;;;;14.68;3.08;;;24.20;99.90;;;;;;5059139;28;20186;-74
2022/05/13 10:54:54;;;;;;;17.92;3.33;;;24.10;99.90;;;;;;5034835;28;20206;-75
2022/05/13 10:58:35;;;;;;;10.60;3.22;;;24.10;99.90;;;;;;5070620;28;20543;-75
2022/05/13 11:01:32;;;;;;;13.43;3.22;;;24.10;99.90;;;;;;5002424;28;20201;-74
2022/05/13 11:04:31;;;;;;;12.50;3.00;;;24.00;99.90;;;;;;5068095;28;20653;-74
2022/05/13 11:07:16;;;;;;;11.90;3.17;;;24.00;99.90;;;;;;5039714;28;20183;-74
2022/05/13 11:10:10;;;;;;;8.25;2.70;;;24.00;99.90;;;;;;5042489;28;20528;-75
2022/05/13 11:13:25;;;;;;;12.27;2.75;;;24.00;99.90;;;;;;5058926;28;20594;-75
2022/05/13 11:16:27;;;;;;;12.15;3.10;;;24.00;99.90;;;;;;5063281;28;20202;-75
2022/05/13 11:19:43;;;;;;;17.67;3.20;;;24.00;99.90;;;;;;5039097;28;20206;-75
2022/05/13 11:22:34;;;;;;;10.75;3.03;;;24.00;99.90;;;;;;5083325;28;20206;-75
2022/05/13 11:28:52;;;;;;;11.98;3.05;;;23.80;99.90;;;;;;5053353;28;20929;-74
2022/05/13 11:31:47;;;;;;;9.73;3.40;;;23.90;99.90;;;;;;5043683;28;20202;-73
2022/05/13 11:34:40;;;;;;;13.02;3.42;;;23.90;99.90;;;;;;5038340;28;20233;-74
2022/05/13 11:37:15;;;;;;;13.45;3.50;;;24.00;99.90;;;;;;5053957;28;20190;-74
2022/05/13 11:40:25;;;;;;;9.43;3.15;;;24.20;99.90;;;;;;5063073;28;20187;-74
2022/05/13 11:43:35;;;;;;;10.57;3.03;;;24.30;99.90;;;;;;5064697;28;20211;-74
2022/05/13 11:46:02;;;;;;;14.05;2.97;;;24.30;99.90;;;;;;5045710;28;20199;-74
2022/05/13 11:48:32;;;;;;;12.48;3.17;;;24.30;99.90;;;;;;5065617;28;20731;-74
2022/05/13 11:51:18;;;;;;;12.02;3.50;;;24.30;99.90;;;;;;5048802;28;20187;-74
2022/05/13 11:53:50;;;;;;;11.85;3.55;;;24.30;99.90;;;;;;5063845;28;20197;-74
2022/05/13 11:56:29;;;;;;;13.30;3.13;;;24.30;99.90;;;;;;5071607;28;20221;-74
2022/05/13 11:59:31;;;;;;;9.80;3.38;;;24.30;99.90;;;;;;5042083;28;20182;-74
2022/05/13 12:02:15;;;;;;;9.77;3.30;;;24.30;99.90;;;;;;5046254;28;20232;-74
2022/05/13 12:05:19;;;;;;;13.45;3.40;;;24.20;99.90;;;;;;5039003;28;20222;-73
2022/05/13 12:08:16;;;;;;;11.43;3.70;;;24.40;99.90;;;;;;5047841;28;20312;-73
2022/05/13 12:11:13;;;;;;;11.65;3.50;;;24.50;99.90;;;;;;5061839;28;20230;-73
2022/05/13 12:14:09;;;;;;;14.40;3.85;;;24.50;99.90;;;;;;5061219;28;20202;-74
2022/05/13 12:16:55;;;;;;;16.92;3.95;;;24.40;99.90;;;;;;5056444;28;20187;-74
2022/05/13 12:19:41;;;;;;;14.50;3.53;;;24.30;99.90;;;;;;5054882;28;20598;-74
2022/05/13 12:22:59;;;;;;;10.73;3.17;;;24.20;99.90;;;;;;5041887;28;20739;-75
2022/05/13 12:25:38;;;;;;;10.02;3.55;;;24.20;99.90;;;;;;5069398;28;20191;-74
2022/05/13 12:28:30;;;;;;;15.98;3.50;;;24.10;99.90;;;;;;5058855;28;20271;-74
2022/05/13 12:30:58;;;;;;;12.82;3.72;;;24.00;99.90;;;;;;5060597;28;20182;-74
2022/05/13 12:33:26;;;;;;;8.85;3.35;;;23.90;99.90;;;;;;5070097;28;20182;-74
2022/05/13 12:39:24;;;;;;;10.88;3.15;;;23.70;99.90;;;;;;5060293;28;20182;-74
2022/05/13 12:42:11;;;;;;;17.05;3.60;;;23.60;99.90;;;;;;5059623;28;20261;-74
2022/05/13 12:45:03;;;;;;;13.40;3.60;;;23.60;99.90;;;;;;5065475;28;20186;-74
2022/05/13 12:47:59;;;;;;;19.63;4.05;;;23.70;99.90;;;;;;5058549;28;20226;-74
2022/05/13 12:50:50;;;;;;;12.98;3.40;;;23.50;99.90;;;;;;5087138;28;20187;-74
2022/05/13 12:53:28;;;;;;;15.23;3.60;;;23.60;99.90;;;;;;5056501;28;20191;-74
2022/05/13 12:56:09;;;;;;;12.25;3.42;;;23.60;99.90;;;;;;5060898;28;20205;-74
2022/05/13 12:59:01;;;;;;;13.38;2.92;;;23.60;99.90;;;;;;5042543;28;20240;-74
2022/05/13 13:01:29;;;;;;;10.10;3.17;;;23.50;99.90;;;;;;5043955;28;21993;-74
2022/05/13 13:03:57;;;;;;;12.65;3.63;;;23.60;99.90;;;;;;5050658;28;20270;-74
2022/05/13 13:06:39;;;;;;;12.85;3.83;;;23.50;99.90;;;;;;5081679;28;20191;-74
2022/05/13 13:09:16;;;;;;;10.77;3.47;;;23.40;99.90;;;;;;5065154;28;20186;-74
2022/05/13 13:12:25;;;;;;;13.00;3.75;;;23.30;99.90;;;;;;5086062;28;20182;-74
2022/05/13 13:15:29;;;;;;;10.00;3.58;;;23.20;99.90;;;;;;5065819;28;20195;-74
2022/05/13 13:18:05;;;;;;;11.00;3.10;;;23.20;99.90;;;;;;5028731;28;20237;-74
2022/05/13 13:20:55;;;;;;;8.35;3.35;;;23.30;99.90;;;;;;5064524;28;20234;-74
2022/05/13 13:23:27;;;;;;;10.02;3.30;;;23.50;99.90;;;;;;5077848;28;20202;-74
2022/05/13 13:25:54;;;;;;;16.80;3.28;;;23.70;99.90;;;;;;5066529;28;20566;-74
2022/05/13 13:28:31;;;;;;;12.10;3.55;;;23.70;99.90;;;;;;5067731;28;20212;-74
2022/05/13 13:31:23;;;;;;;9.75;3.20;;;23.60;99.90;;;;;;5047320;28;20222;-74
2022/05/13 13:33:56;;;;;;;14.98;3.30;;;23.50;99.90;;;;;;5050559;28;20279;-74
2022/05/13 13:36:29;;;;;;;13.45;3.50;;;23.50;99.90;;;;;;5068725;28;20185;-74
2022/05/13 13:39:06;;;;;;;11.77;3.47;;;23.50;99.90;;;;;;5042259;28;20278;-74
2022/05/13 13:41:37;;;;;;;19.00;3.97;;;23.60;99.90;;;;;;5050999;28;20195;-75
2022/05/13 13:44:08;;;;;;;11.88;3.60;;;23.60;99.90;;;;;;5050951;28;20190;-74
2022/05/13 13:46:47;;;;;;;16.73;3.25;;;23.60;99.90;;;;;;5042473;28;20657;-74
2022/05/13 13:49:35;;;;;;;10.98;3.42;;;23.70;99.90;;;;;;5044054;28;20186;-74
2022/05/13 13:52:13;;;;;;;17.48;3.80;;;23.60;99.90;;;;;;5068527;28;20182;-74